Time;durP1;ratioP1;P1;durP2;ratioP2;P2;SDS_P1;SDS_P2;PMS_P1;PMS_P2;Temp;Humidity;BMP_temperature;BMP_pressure;BME280_temperature;BME280_humidity;BME280_pressure;Samples;Min_cycle;Max_cycle;Signal;HPM_P1;HPM_P2
2023/10/27 00:00:37;;;;;;;;;;;14.70;71.10;;;;;;5097508;28;19927;-71
2023/10/27 00:03:03;;;;;;;;;;;14.70;71.10;;;;;;5097348;28;20018;-70
2023/10/27 00:05:28;;;;;;;;;;;14.70;71.20;;;;;;5097579;28;19928;-70
2023/10/27 00:07:54;;;;;;;;;;;14.70;71.20;;;;;;5097273;28;19923;-70
2023/10/27 00:10:19;;;;;;;;;;;14.70;71.20;;;;;;5097648;28;19920;-70
2023/10/27 00:12:45;;;;;;;;;;;14.70;71.20;;;;;;5115511;28;20294;-71
2023/10/27 00:15:10;;;;;;;;;;;14.70;71.20;;;;;;5115411;28;19920;-70
2023/10/27 00:17:36;;;;;;;;;;;14.70;71.20;;;;;;5097190;28;20424;-71
2023/10/27 00:20:02;;;;;;;;;;;14.70;71.20;;;;;;5131489;27;19924;-71
2023/10/27 00:22:28;;;;;;;;;;;14.70;71.20;;;;;;5097084;28;19926;-71
2023/10/27 00:24:53;;;;;;;;;;;14.70;71.20;;;;;;5131288;27;19924;-70
2023/10/27 00:27:20;;;;;;;;;;;14.70;71.30;;;;;;5097345;28;20367;-70
2023/10/27 00:29:45;;;;;;;;;;;14.70;71.20;;;;;;5097148;28;19926;-70
2023/10/27 00:32:11;;;;;;;;;;;14.80;71.30;;;;;;5115232;28;20367;-70
2023/10/27 00:34:37;;;;;;;;;;;14.70;71.20;;;;;;5096878;28;20019;-70
2023/10/27 00:37:02;;;;;;;;;;;14.70;71.20;;;;;;5096829;28;20060;-70
2023/10/27 00:39:28;;;;;;;;;;;14.70;71.20;;;;;;5097039;28;19920;-70
2023/10/27 00:41:53;;;;;;;;;;;14.70;71.30;;;;;;5096787;28;19944;-70
2023/10/27 00:44:19;;;;;;;;;;;14.70;71.30;;;;;;5130530;27;19978;-70
2023/10/27 00:46:45;;;;;;;;;;;14.60;71.20;;;;;;5130735;27;19972;-70
2023/10/27 00:49:11;;;;;;;;;;;14.60;71.20;;;;;;5131035;27;20283;-70
2023/10/27 00:51:37;;;;;;;;;;;14.60;71.30;;;;;;5114914;28;19943;-70
2023/10/27 00:54:02;;;;;;;;;;;14.60;71.30;;;;;;5096434;28;19927;-70
2023/10/27 00:56:28;;;;;;;;;;;14.60;71.30;;;;;;5114929;28;20278;-70
2023/10/27 00:58:55;;;;;;;;;;;14.60;71.30;;;;;;5096631;28;19920;-70
2023/10/27 01:01:21;;;;;;;;;;;14.60;71.40;;;;;;5096252;28;19926;-71
2023/10/27 01:03:46;;;;;;;;;;;14.60;71.30;;;;;;5130685;27;19920;-70
2023/10/27 01:06:12;;;;;;;;;;;14.60;71.30;;;;;;5114537;28;19934;-70
2023/10/27 01:08:37;;;;;;;;;;;14.60;71.40;;;;;;5130687;27;20010;-71
2023/10/27 01:11:03;;;;;;;;;;;14.60;71.40;;;;;;5130309;27;19927;-70
2023/10/27 01:13:29;;;;;;;;;;;14.60;71.40;;;;;;5096420;28;19920;-70
2023/10/27 01:15:54;;;;;;;;;;;14.60;71.40;;;;;;5095930;28;19963;-70
2023/10/27 01:18:20;;;;;;;;;;;14.60;71.40;;;;;;5114221;28;19972;-71
2023/10/27 01:20:45;;;;;;;;;;;14.60;71.40;;;;;;5114223;28;19945;-71
2023/10/27 01:23:11;;;;;;;;;;;14.60;71.40;;;;;;5095989;28;19920;-71
2023/10/27 01:25:36;;;;;;;;;;;14.60;71.50;;;;;;5113960;28;19924;-71
2023/10/27 01:28:02;;;;;;;;;;;14.60;71.50;;;;;;5096107;28;19924;-70
2023/10/27 01:30:28;;;;;;;;;;;14.60;71.50;;;;;;5095774;28;20446;-71
2023/10/27 01:32:53;;;;;;;;;;;14.60;71.50;;;;;;5096084;28;19924;-71
2023/10/27 01:35:19;;;;;;;;;;;14.60;71.50;;;;;;5113995;28;20018;-71
2023/10/27 01:37:44;;;;;;;;;;;14.60;71.50;;;;;;5095910;28;19967;-71
2023/10/27 01:40:10;;;;;;;;;;;14.60;71.50;;;;;;5113843;28;19920;-70
2023/10/27 01:42:36;;;;;;;;;;;14.60;71.50;;;;;;5095504;28;19977;-70
2023/10/27 01:45:03;;;;;;;;;;;14.60;71.50;;;;;;5095429;28;19935;-70
2023/10/27 01:47:29;;;;;;;;;;;14.60;71.50;;;;;;5113591;28;19927;-70
2023/10/27 01:49:55;;;;;;;;;;;14.60;71.50;;;;;;5095443;28;19919;-70
2023/10/27 01:52:20;;;;;;;;;;;14.60;71.60;;;;;;5095297;28;19920;-70
2023/10/27 01:54:46;;;;;;;;;;;14.50;71.50;;;;;;5095633;28;19919;-70
2023/10/27 01:57:12;;;;;;;;;;;14.60;71.60;;;;;;5095568;28;20285;-70
2023/10/27 01:59:40;;;;;;;;;;;14.60;71.60;;;;;;5095530;28;19923;-71
2023/10/27 02:02:05;;;;;;;;;;;14.50;71.50;;;;;;5095136;28;19920;-71
2023/10/27 02:04:35;;;;;;;;;;;14.50;71.60;;;;;;5113548;28;19920;-71
2023/10/27 02:07:00;;;;;;;;;;;14.50;71.50;;;;;;5095392;28;19927;-71
2023/10/27 02:09:26;;;;;;;;;;;14.50;71.60;;;;;;5095135;28;20271;-70
2023/10/27 02:11:52;;;;;;;;;;;14.50;71.60;;;;;;5095043;28;19927;-70
2023/10/27 02:14:18;;;;;;;;;;;14.50;71.60;;;;;;5095375;28;19963;-70
2023/10/27 02:16:43;;;;;;;;;;;14.50;71.60;;;;;;5094797;28;20342;-71
2023/10/27 02:19:09;;;;;;;;;;;14.50;71.60;;;;;;5095114;28;19920;-71
2023/10/27 02:21:35;;;;;;;;;;;14.50;71.60;;;;;;5095250;28;19919;-71
2023/10/27 02:24:00;;;;;;;;;;;14.50;71.60;;;;;;5095182;28;19926;-71
2023/10/27 02:26:26;;;;;;;;;;;14.50;71.60;;;;;;5094779;28;20310;-70
2023/10/27 02:28:51;;;;;;;;;;;14.50;71.60;;;;;;5128863;27;19948;-70
2023/10/27 02:31:18;;;;;;;;;;;14.50;71.60;;;;;;5129157;27;20006;-71
2023/10/27 02:33:43;;;;;;;;;;;14.50;71.60;;;;;;5094900;28;19924;-71
2023/10/27 02:36:09;;;;;;;;;;;14.50;71.60;;;;;;5112950;28;19927;-70
2023/10/27 02:38:34;;;;;;;;;;;14.50;71.60;;;;;;5095068;28;19924;-71
2023/10/27 02:41:15;;;;;;;;;;;14.50;71.60;;;;;;5129108;27;19920;-70
2023/10/27 02:43:40;;;;;;;;;;;14.50;71.60;;;;;;5094522;28;19920;-70
2023/10/27 02:46:06;;;;;;;;;;;14.50;71.60;;;;;;5094221;28;19969;-70
2023/10/27 02:48:32;;;;;;;;;;;14.50;71.60;;;;;;5094512;28;20583;-70
2023/10/27 02:50:57;;;;;;;;;;;14.50;71.60;;;;;;5112923;28;20019;-70
2023/10/27 02:53:23;;;;;;;;;;;14.50;71.60;;;;;;5112788;28;19920;-70
2023/10/27 02:55:49;;;;;;;;;;;14.50;71.60;;;;;;5128604;28;19919;-70
2023/10/27 02:58:14;;;;;;;;;;;14.50;71.60;;;;;;5128528;28;19927;-70
2023/10/27 03:00:41;;;;;;;;;;;14.50;71.70;;;;;;5128426;28;20294;-70
2023/10/27 03:03:06;;;;;;;;;;;14.50;71.60;;;;;;5094314;28;19919;-70
2023/10/27 03:05:32;;;;;;;;;;;14.50;71.60;;;;;;5094189;28;19928;-71
2023/10/27 03:07:57;;;;;;;;;;;14.50;71.70;;;;;;5094346;28;19920;-70
2023/10/27 03:10:23;;;;;;;;;;;14.50;71.70;;;;;;5094602;28;19919;-70
2023/10/27 03:12:49;;;;;;;;;;;14.50;71.70;;;;;;5128698;28;20003;-70
2023/10/27 03:15:14;;;;;;;;;;;14.50;71.70;;;;;;5094226;28;19920;-70
2023/10/27 03:17:40;;;;;;;;;;;14.40;71.60;;;;;;5094070;28;19927;-71
2023/10/27 03:20:06;;;;;;;;;;;14.40;71.60;;;;;;5094168;28;19920;-71
2023/10/27 03:22:32;;;;;;;;;;;14.50;71.70;;;;;;5094310;28;19923;-71
2023/10/27 03:24:58;;;;;;;;;;;14.40;71.70;;;;;;5093986;28;19923;-70
2023/10/27 03:27:24;;;;;;;;;;;14.40;71.60;;;;;;5095586;28;19926;-70
2023/10/27 03:29:50;;;;;;;;;;;14.40;71.60;;;;;;5098058;28;19998;-71
2023/10/27 03:32:16;;;;;;;;;;;14.50;71.70;;;;;;5116287;28;19958;-70
2023/10/27 03:34:43;;;;;;;;;;;14.40;71.60;;;;;;5116279;28;19923;-70
2023/10/27 03:37:09;;;;;;;;;;;14.40;71.60;;;;;;5098363;28;19920;-70
2023/10/27 03:39:35;;;;;;;;;;;14.40;71.60;;;;;;5097920;28;20382;-71
2023/10/27 03:42:00;;;;;;;;;;;14.40;71.60;;;;;;5097786;28;20430;-70
2023/10/27 03:44:26;;;;;;;;;;;14.40;71.60;;;;;;5094522;28;20015;-70
2023/10/27 03:46:51;;;;;;;;;;;14.40;71.70;;;;;;5097635;28;19935;-70
2023/10/27 03:49:17;;;;;;;;;;;14.40;71.70;;;;;;5115969;28;19927;-70
2023/10/27 03:51:42;;;;;;;;;;;14.40;71.70;;;;;;5115882;28;19963;-70
2023/10/27 03:54:08;;;;;;;;;;;14.40;71.70;;;;;;5097706;28;19926;-70
2023/10/27 03:56:33;;;;;;;;;;;14.40;71.70;;;;;;5097913;28;19920;-70
2023/10/27 03:58:59;;;;;;;;;;;14.40;71.70;;;;;;5097624;28;19927;-70
2023/10/27 04:01:27;;;;;;;;;;;14.40;71.70;;;;;;5115800;28;19972;-70
2023/10/27 04:03:53;;;;;;;;;;;14.40;71.70;;;;;;5097643;28;19977;-70
2023/10/27 04:06:19;;;;;;;;;;;14.40;71.70;;;;;;5097329;28;19926;-70
2023/10/27 04:08:45;;;;;;;;;;;14.40;71.70;;;;;;5097366;28;19923;-70
2023/10/27 04:11:10;;;;;;;;;;;14.40;71.70;;;;;;5097535;28;19920;-70
2023/10/27 04:13:36;;;;;;;;;;;14.40;71.70;;;;;;5097312;28;19924;-70
2023/10/27 04:16:02;;;;;;;;;;;14.40;71.70;;;;;;5097429;28;20013;-70
2023/10/27 04:18:27;;;;;;;;;;;14.40;71.70;;;;;;5096482;28;19927;-71
2023/10/27 04:20:52;;;;;;;;;;;14.40;71.70;;;;;;5115367;28;19919;-71
2023/10/27 04:23:18;;;;;;;;;;;14.40;71.70;;;;;;5131186;27;19924;-71
2023/10/27 04:25:47;;;;;;;;;;;14.40;71.70;;;;;;5097160;28;19962;-70
2023/10/27 04:28:13;;;;;;;;;;;14.40;71.70;;;;;;5115269;28;19927;-71
2023/10/27 04:30:38;;;;;;;;;;;14.40;71.70;;;;;;5115284;28;19920;-71
2023/10/27 04:33:05;;;;;;;;;;;14.40;71.70;;;;;;5131038;27;20397;-71
2023/10/27 04:35:31;;;;;;;;;;;14.40;71.70;;;;;;5115128;28;19920;-71
2023/10/27 04:37:58;;;;;;;;;;;14.40;71.70;;;;;;5096406;28;19945;-70
2023/10/27 04:40:25;;;;;;;;;;;14.30;71.70;;;;;;5115274;28;20105;-71
2023/10/27 04:42:51;;;;;;;;;;;14.40;71.70;;;;;;5096689;28;19924;-70
2023/10/27 04:45:16;;;;;;;;;;;14.40;71.70;;;;;;5096443;28;19931;-70
2023/10/27 04:47:42;;;;;;;;;;;14.30;71.70;;;;;;5096576;28;19930;-70
2023/10/27 04:50:09;;;;;;;;;;;14.40;71.80;;;;;;5096867;28;19920;-70
2023/10/27 04:52:34;;;;;;;;;;;14.40;71.80;;;;;;5096779;28;20363;-70
2023/10/27 04:55:00;;;;;;;;;;;14.40;71.70;;;;;;5096510;28;20007;-70
2023/10/27 04:57:25;;;;;;;;;;;14.40;71.70;;;;;;5096675;28;19926;-70
2023/10/27 04:59:51;;;;;;;;;;;14.40;71.70;;;;;;5096346;28;19919;-71
2023/10/27 05:02:16;;;;;;;;;;;14.40;71.70;;;;;;5096378;28;19950;-70
2023/10/27 05:04:42;;;;;;;;;;;14.30;71.70;;;;;;5096359;28;20330;-70
2023/10/27 05:07:07;;;;;;;;;;;14.40;71.70;;;;;;5114494;28;20139;-71
2023/10/27 05:09:33;;;;;;;;;;;14.30;71.70;;;;;;5096486;28;19920;-70
2023/10/27 05:11:58;;;;;;;;;;;14.30;71.70;;;;;;5096505;28;20336;-70
2023/10/27 05:14:24;;;;;;;;;;;14.30;71.70;;;;;;5096061;28;19926;-70
2023/10/27 05:16:50;;;;;;;;;;;14.30;71.70;;;;;;5113780;28;20291;-70
2023/10/27 05:19:16;;;;;;;;;;;14.30;71.80;;;;;;5096257;28;19927;-71
2023/10/27 05:21:42;;;;;;;;;;;14.30;71.70;;;;;;5095936;28;19920;-71
2023/10/27 05:24:09;;;;;;;;;;;14.30;71.80;;;;;;5095823;28;20015;-71
2023/10/27 05:26:35;;;;;;;;;;;14.20;71.70;;;;;;5095958;28;19923;-70
2023/10/27 05:29:00;;;;;;;;;;;14.30;71.70;;;;;;5118908;28;19911;-71
2023/10/27 05:31:26;;;;;;;;;;;14.30;71.70;;;;;;5114186;28;19943;-71
2023/10/27 05:33:51;;;;;;;;;;;14.30;71.70;;;;;;5096039;28;20014;-70
2023/10/27 05:36:17;;;;;;;;;;;14.30;71.80;;;;;;5095725;28;20331;-70
2023/10/27 05:38:42;;;;;;;;;;;14.30;71.70;;;;;;5113894;28;19926;-70
2023/10/27 05:41:08;;;;;;;;;;;14.30;71.70;;;;;;5095638;28;19920;-70
2023/10/27 05:43:33;;;;;;;;;;;14.30;71.70;;;;;;5113990;28;19920;-70
2023/10/27 05:45:59;;;;;;;;;;;14.30;71.80;;;;;;5077412;28;19924;-70
2023/10/27 05:48:24;;;;;;;;;;;14.30;71.70;;;;;;5093302;28;20371;-70
2023/10/27 05:50:50;;;;;;;;;;;14.30;71.80;;;;;;5108439;28;19920;-70
2023/10/27 05:53:15;;;;;;;;;;;14.20;71.70;;;;;;5108951;28;19969;-70
2023/10/27 05:55:42;;;;;;;;;;;14.30;71.80;;;;;;5075282;28;19927;-70
2023/10/27 05:58:07;;;;;;;;;;;14.30;71.80;;;;;;5075185;28;19920;-70
2023/10/27 06:00:32;;;;;;;;;;;14.30;71.80;;;;;;5093192;28;19920;-70
2023/10/27 06:02:58;;;;;;;;;;;14.30;71.80;;;;;;5108832;28;19928;-70
2023/10/27 06:05:24;;;;;;;;;;;14.30;71.80;;;;;;5074991;28;19924;-70
2023/10/27 06:07:50;;;;;;;;;;;14.30;71.80;;;;;;5092991;28;19962;-70
2023/10/27 06:10:15;;;;;;;;;;;14.30;71.80;;;;;;5075103;28;19959;-70
2023/10/27 06:12:41;;;;;;;;;;;14.30;71.80;;;;;;5093108;28;19927;-70
2023/10/27 06:15:07;;;;;;;;;;;14.30;71.80;;;;;;5092937;28;19958;-70
2023/10/27 06:17:33;;;;;;;;;;;14.30;71.80;;;;;;5092783;28;19924;-70
2023/10/27 06:19:58;;;;;;;;;;;14.30;71.80;;;;;;5092885;28;19920;-71
2023/10/27 06:22:24;;;;;;;;;;;14.30;71.80;;;;;;5074851;28;19931;-71
2023/10/27 06:24:49;;;;;;;;;;;14.30;71.80;;;;;;5092708;28;19963;-70
2023/10/27 06:27:15;;;;;;;;;;;14.30;71.80;;;;;;5092826;28;19974;-70
2023/10/27 06:29:41;;;;;;;;;;;14.30;71.80;;;;;;5074537;28;19920;-71
2023/10/27 06:32:06;;;;;;;;;;;14.30;71.80;;;;;;5074796;28;19920;-71
2023/10/27 06:34:32;;;;;;;;;;;14.20;71.70;;;;;;5074680;28;19924;-71
2023/10/27 06:36:58;;;;;;;;;;;14.30;71.80;;;;;;5074404;28;19924;-70
2023/10/27 06:39:24;;;;;;;;;;;14.20;71.80;;;;;;5074678;28;20045;-70
2023/10/27 06:41:50;;;;;;;;;;;14.20;71.80;;;;;;5074392;28;19959;-70
2023/10/27 06:44:16;;;;;;;;;;;14.20;71.80;;;;;;5092274;28;20434;-70
2023/10/27 06:46:44;;;;;;;;;;;14.20;71.80;;;;;;5108753;28;20056;-71
2023/10/27 06:49:09;;;;;;;;;;;14.20;71.80;;;;;;5094935;28;19919;-70
2023/10/27 06:51:35;;;;;;;;;;;14.20;71.80;;;;;;5094711;28;19920;-70
2023/10/27 06:54:00;;;;;;;;;;;14.20;71.80;;;;;;5094435;28;19926;-70
2023/10/27 06:56:26;;;;;;;;;;;14.20;71.80;;;;;;5094422;28;20019;-70
2023/10/27 06:58:51;;;;;;;;;;;14.20;71.80;;;;;;5094453;28;20198;-70
2023/10/27 07:01:17;;;;;;;;;;;14.20;71.80;;;;;;5113748;28;19988;-70
2023/10/27 07:03:43;;;;;;;;;;;14.20;71.80;;;;;;5098625;28;19919;-70
2023/10/27 07:06:10;;;;;;;;;;;14.30;71.90;;;;;;5098591;28;19931;-70
2023/10/27 07:08:37;;;;;;;;;;;14.20;71.80;;;;;;5098741;28;19919;-70
2023/10/27 07:11:03;;;;;;;;;;;14.20;71.80;;;;;;5098471;28;19920;-70
2023/10/27 07:13:30;;;;;;;;;;;14.20;71.80;;;;;;5116849;28;20385;-70
2023/10/27 07:15:56;;;;;;;;;;;14.20;71.80;;;;;;5098696;28;19920;-71
2023/10/27 07:18:21;;;;;;;;;;;14.20;71.80;;;;;;5084576;28;20391;-71
2023/10/27 07:20:47;;;;;;;;;;;14.20;71.80;;;;;;5078391;28;20355;-70
2023/10/27 07:23:13;;;;;;;;;;;14.20;71.80;;;;;;5077907;28;19969;-71
2023/10/27 07:25:38;;;;;;;;;;;14.20;71.80;;;;;;5096030;28;20445;-70
2023/10/27 07:28:04;;;;;;;;;;;14.20;71.80;;;;;;5077840;28;19924;-70
2023/10/27 07:30:30;;;;;;;;;;;14.20;71.80;;;;;;5096078;28;20058;-71
2023/10/27 07:32:56;;;;;;;;;;;14.20;71.80;;;;;;5078070;28;19920;-71
2023/10/27 07:35:22;;;;;;;;;;;14.20;71.80;;;;;;5077665;28;19926;-71
2023/10/27 07:37:48;;;;;;;;;;;14.20;71.80;;;;;;5077732;28;19926;-70
2023/10/27 07:40:17;;;;;;;;;;;14.20;71.80;;;;;;5077585;28;19920;-70
2023/10/27 07:42:42;;;;;;;;;;;14.20;71.80;;;;;;5077903;28;20327;-70
2023/10/27 07:45:08;;;;;;;;;;;14.20;71.80;;;;;;5095554;28;20019;-70
2023/10/27 07:47:34;;;;;;;;;;;14.20;71.80;;;;;;5077561;28;19920;-70
2023/10/27 07:50:00;;;;;;;;;;;14.20;71.90;;;;;;5095574;28;19920;-70
2023/10/27 07:52:26;;;;;;;;;;;14.20;71.90;;;;;;5077479;28;19920;-70
2023/10/27 07:54:52;;;;;;;;;;;14.20;71.80;;;;;;5095451;28;19930;-70
2023/10/27 07:57:17;;;;;;;;;;;14.20;71.80;;;;;;5095460;28;19926;-70
2023/10/27 07:59:43;;;;;;;;;;;14.20;71.90;;;;;;5077297;28;19920;-70
2023/10/27 08:02:09;;;;;;;;;;;14.20;71.90;;;;;;5077219;28;19951;-70
2023/10/27 08:04:37;;;;;;;;;;;14.20;71.80;;;;;;5095325;28;19920;-70
2023/10/27 08:07:03;;;;;;;;;;;14.20;71.90;;;;;;5095467;28;20503;-70
2023/10/27 08:09:29;;;;;;;;;;;14.20;71.90;;;;;;5095251;28;19970;-70
2023/10/27 08:11:55;;;;;;;;;;;14.20;71.90;;;;;;5077331;28;19989;-70
2023/10/27 08:14:21;;;;;;;;;;;14.20;71.90;;;;;;5059895;28;20389;-70
2023/10/27 08:16:46;;;;;;;;;;;14.20;71.90;;;;;;5076753;28;19920;-70
2023/10/27 08:19:12;;;;;;;;;;;14.20;71.80;;;;;;5095127;28;20383;-71
2023/10/27 08:21:38;;;;;;;;;;;14.20;71.80;;;;;;5095101;28;19920;-71
2023/10/27 08:24:04;;;;;;;;;;;14.20;71.90;;;;;;5077175;28;20386;-70
2023/10/27 08:26:29;;;;;;;;;;;14.20;71.90;;;;;;5076699;28;20393;-70
2023/10/27 08:28:55;;;;;;;;;;;14.20;71.90;;;;;;5076729;28;19920;-70
2023/10/27 08:31:20;;;;;;;;;;;14.20;71.90;;;;;;5077010;28;19926;-71
2023/10/27 08:33:46;;;;;;;;;;;14.20;71.80;;;;;;5094790;28;19920;-71
2023/10/27 08:36:11;;;;;;;;;;;14.20;71.90;;;;;;5076676;28;19943;-71
2023/10/27 08:38:36;;;;;;;;;;;14.20;71.90;;;;;;5076899;28;19927;-70
2023/10/27 08:41:04;;;;;;;;;;;14.20;71.80;;;;;;5076702;28;19931;-70
2023/10/27 08:43:31;;;;;;;;;;;14.20;71.90;;;;;;5094700;28;19945;-70
2023/10/27 08:45:57;;;;;;;;;;;14.20;71.90;;;;;;5093917;28;19924;-70
2023/10/27 08:48:23;;;;;;;;;;;14.20;71.90;;;;;;5096937;28;20030;-70
2023/10/27 08:50:49;;;;;;;;;;;14.20;71.90;;;;;;5096858;28;20446;-70
2023/10/27 08:53:15;;;;;;;;;;;14.20;71.90;;;;;;5096593;28;19923;-71
2023/10/27 08:55:41;;;;;;;;;;;14.20;71.90;;;;;;5114676;28;20333;-71
2023/10/27 08:58:07;;;;;;;;;;;14.20;71.90;;;;;;5114707;28;19920;-70
2023/10/27 09:00:32;;;;;;;;;;;14.20;71.90;;;;;;5114672;28;19970;-70
2023/10/27 09:02:58;;;;;;;;;;;14.20;71.90;;;;;;5096401;28;19926;-70
2023/10/27 09:05:24;;;;;;;;;;;14.20;71.90;;;;;;5114602;28;19923;-71
2023/10/27 09:07:50;;;;;;;;;;;14.20;71.90;;;;;;5096592;28;19985;-70
2023/10/27 09:10:18;;;;;;;;;;;14.20;71.90;;;;;;5096639;28;20451;-70
2023/10/27 09:12:44;;;;;;;;;;;14.20;71.90;;;;;;5096434;28;20033;-70
2023/10/27 09:15:12;;;;;;;;;;;14.20;71.90;;;;;;5096470;28;19951;-70
2023/10/27 09:20:45;;;;;;;;;;;14.30;72.00;;;;;;5110376;27;19912;-70
2023/10/27 09:23:10;;;;;;;;;;;14.20;71.90;;;;;;5108816;28;19927;-70
2023/10/27 09:25:36;;;;;;;;;;;14.20;72.00;;;;;;5109284;28;19923;-70
2023/10/27 09:28:02;;;;;;;;;;;14.20;72.00;;;;;;5109077;28;19924;-70
2023/10/27 09:30:29;;;;;;;;;;;14.20;72.00;;;;;;5108904;28;19920;-70
2023/10/27 09:32:55;;;;;;;;;;;14.20;72.00;;;;;;5109087;28;19924;-70
2023/10/27 09:35:22;;;;;;;;;;;14.20;72.00;;;;;;5108796;28;19939;-70
2023/10/27 09:37:49;;;;;;;;;;;14.20;72.00;;;;;;5108622;28;19924;-70
2023/10/27 09:40:18;;;;;;;;;;;14.20;72.00;;;;;;5108555;28;19930;-70
2023/10/27 09:42:43;;;;;;;;;;;14.30;72.10;;;;;;5110060;28;19920;-70
2023/10/27 09:45:11;;;;;;;;;;;14.20;72.00;;;;;;5109946;28;19920;-70
2023/10/27 09:47:46;;;;;;;;;;;14.20;72.00;;;;;;5109734;28;19919;-70
2023/10/27 09:50:13;;;;;;;;;;;14.20;72.10;;;;;;5108795;28;19927;-70
2023/10/27 09:52:40;;;;;;;;;;;14.20;72.00;;;;;;5108336;28;19931;-70
2023/10/27 09:55:07;;;;;;;;;;;14.20;72.10;;;;;;5108359;28;19923;-70
2023/10/27 09:57:33;;;;;;;;;;;14.20;72.10;;;;;;5109745;28;20137;-70
2023/10/27 09:59:59;;;;;;;;;;;14.20;72.10;;;;;;5108331;28;20223;-69
2023/10/27 10:02:25;;;;;;;;;;;14.20;72.10;;;;;;5108209;28;19927;-70
2023/10/27 10:10:17;;;;;;;;;;;14.20;72.10;;;;;;5110299;27;19918;-70
2023/10/27 10:13:02;;;;;;;;;;;14.20;72.10;;;;;;5109180;28;19920;-69
2023/10/27 10:15:29;;;;;;;;;;;14.20;72.20;;;;;;5108772;28;19920;-69
2023/10/27 10:17:55;;;;;;;;;;;14.20;72.10;;;;;;5108968;28;19920;-69
2023/10/27 10:20:41;;;;;;;;;;;14.20;72.20;;;;;;5108855;28;19920;-70
2023/10/27 10:23:07;;;;;;;;;;;14.20;72.20;;;;;;5108527;28;19920;-69
2023/10/27 10:25:33;;;;;;;;;;;14.20;72.20;;;;;;5108787;28;19943;-69
2023/10/27 10:34:08;;;;;;;;;;;14.20;72.30;;;;;;5110501;27;19919;-70
2023/10/27 10:36:33;;;;;;;;;;;14.20;72.30;;;;;;5109205;28;20276;-69
2023/10/27 10:39:00;;;;;;;;;;;14.20;72.30;;;;;;5108877;28;19927;-70
2023/10/27 10:44:21;;;;;;;;;;;14.20;72.30;;;;;;5105488;27;19912;-69
2023/10/27 10:46:47;;;;;;;;;;;14.20;72.30;;;;;;5089883;28;20375;-69
2023/10/27 10:49:24;;;;;;;;;;;14.20;72.30;;;;;;5088465;28;20083;-69
2023/10/27 10:51:51;;;;;;;;;;;14.20;72.30;;;;;;5088787;28;19924;-69
2023/10/27 10:54:16;;;;;;;;;;;14.20;72.30;;;;;;5089687;28;19926;-69
2023/10/27 10:56:42;;;;;;;;;;;14.20;72.30;;;;;;5088745;28;20372;-69
2023/10/27 10:59:08;;;;;;;;;;;14.20;72.30;;;;;;5088346;28;20400;-69
2023/10/27 11:01:34;;;;;;;;;;;14.20;72.30;;;;;;5088649;28;19947;-69
2023/10/27 11:04:00;;;;;;;;;;;14.20;72.30;;;;;;5088234;28;19952;-69
2023/10/27 11:06:26;;;;;;;;;;;14.20;72.30;;;;;;5088467;28;19968;-69
2023/10/27 11:08:53;;;;;;;;;;;14.20;72.30;;;;;;5089774;28;20264;-69
2023/10/27 11:11:18;;;;;;;;;;;14.20;72.30;;;;;;5088442;28;19928;-70
2023/10/27 11:13:45;;;;;;;;;;;14.20;72.30;;;;;;5088123;28;19920;-69
2023/10/27 11:16:14;;;;;;;;;;;14.20;72.30;;;;;;5089715;28;20391;-70
2023/10/27 11:18:40;;;;;;;;;;;14.20;72.30;;;;;;5087909;28;19974;-70
2023/10/27 11:21:05;;;;;;;;;;;14.20;72.30;;;;;;5088378;28;19963;-70
2023/10/27 11:23:31;;;;;;;;;;;14.20;72.30;;;;;;5087897;28;19958;-70
2023/10/27 11:26:04;;;;;;;;;;;14.20;72.30;;;;;;5087950;28;19935;-69
2023/10/27 11:28:30;;;;;;;;;;;14.20;72.30;;;;;;5088096;28;19920;-69
2023/10/27 11:33:57;;;;;;;;;;;14.20;72.40;;;;;;5090022;28;19919;-69
2023/10/27 11:36:24;;;;;;;;;;;14.20;72.40;;;;;;5088951;28;19920;-70
2023/10/27 11:38:49;;;;;;;;;;;14.20;72.40;;;;;;5088906;28;19970;-69
2023/10/27 11:41:15;;;;;;;;;;;14.20;72.40;;;;;;5088386;28;20310;-69
2023/10/27 11:43:40;;;;;;;;;;;14.20;72.40;;;;;;5088473;28;19942;-69
2023/10/27 11:48:54;;;;;;;;;;;14.20;72.40;;;;;;5110302;27;19935;-69
2023/10/27 11:51:19;;;;;;;;;;;14.20;72.40;;;;;;5108865;28;19920;-69
2023/10/27 11:53:45;;;;;;;;;;;14.20;72.40;;;;;;5109255;28;20019;-69
2023/10/27 11:56:11;;;;;;;;;;;14.20;72.40;;;;;;5108861;28;19927;-69
2023/10/27 11:58:36;;;;;;;;;;;14.20;72.40;;;;;;5109070;28;19927;-70
2023/10/27 12:01:02;;;;;;;;;;;14.20;72.40;;;;;;5108818;28;19920;-70
2023/10/27 12:03:27;;;;;;;;;;;14.20;72.50;;;;;;5108891;28;19920;-69
2023/10/27 12:05:53;;;;;;;;;;;14.20;72.50;;;;;;5108693;28;19966;-69
2023/10/27 12:08:19;;;;;;;;;;;14.20;72.50;;;;;;5108574;28;20290;-69
2023/10/27 12:10:45;;;;;;;;;;;14.20;72.50;;;;;;5109921;28;19932;-69
2023/10/27 12:13:10;;;;;;;;;;;14.20;72.50;;;;;;5108426;28;19962;-69
2023/10/27 12:15:36;;;;;;;;;;;14.20;72.50;;;;;;5108438;28;19924;-70
2023/10/27 12:18:03;;;;;;;;;;;14.20;72.50;;;;;;5108565;28;20020;-70
2023/10/27 12:20:29;;;;;;;;;;;14.20;72.50;;;;;;5108690;28;19920;-70
2023/10/27 12:22:55;;;;;;;;;;;14.20;72.50;;;;;;5108245;28;19970;-70
2023/10/27 12:25:21;;;;;;;;;;;14.20;72.50;;;;;;5108327;28;19920;-69
2023/10/27 12:27:46;;;;;;;;;;;14.20;72.60;;;;;;5108211;28;19924;-69
2023/10/27 12:30:13;;;;;;;;;;;14.20;72.60;;;;;;5108494;28;19955;-70
2023/10/27 12:32:38;;;;;;;;;;;14.20;72.60;;;;;;5108446;28;19920;-72
2023/10/27 12:35:04;;;;;;;;;;;14.20;72.60;;;;;;5091257;28;19927;-71
2023/10/27 12:37:31;;;;;;;;;;;14.20;72.60;;;;;;5109405;28;19995;-71
2023/10/27 12:39:56;;;;;;;;;;;14.20;72.60;;;;;;5108019;28;19974;-71
2023/10/27 12:42:22;;;;;;;;;;;14.20;72.60;;;;;;5108314;28;19963;-71
2023/10/27 12:44:48;;;;;;;;;;;14.20;72.60;;;;;;5108054;28;20320;-71
2023/10/27 12:47:13;;;;;;;;;;;14.20;72.60;;;;;;5115902;28;19976;-71
2023/10/27 12:49:39;;;;;;;;;;;14.20;72.60;;;;;;5111385;28;19927;-71
2023/10/27 12:52:07;;;;;;;;;;;14.20;72.70;;;;;;5129500;28;19923;-69
2023/10/27 12:54:36;;;;;;;;;;;14.10;72.60;;;;;;5145443;27;20041;-69
2023/10/27 12:57:01;;;;;;;;;;;14.20;72.70;;;;;;5113479;27;19919;-70
2023/10/27 12:59:27;;;;;;;;;;;14.20;72.70;;;;;;5127597;27;20299;-75
2023/10/27 13:01:52;;;;;;;;;;;14.10;72.70;;;;;;5124707;27;20282;-72
2023/10/27 13:04:18;;;;;;;;;;;14.20;73.00;;;;;;5097363;28;19927;-70
2023/10/27 13:06:45;;;;;;;;;;;14.20;73.10;;;;;;5096358;28;20379;-71
2023/10/27 13:09:11;;;;;;;;;;;14.20;73.30;;;;;;5115629;28;19927;-70
2023/10/27 13:11:36;;;;;;;;;;;14.20;73.30;;;;;;5115600;28;19920;-71
2023/10/27 13:14:03;;;;;;;;;;;14.20;73.40;;;;;;5097418;28;19923;-70
2023/10/27 13:16:28;;;;;;;;;;;14.20;73.40;;;;;;5097193;28;19961;-70
2023/10/27 13:18:53;;;;;;;;;;;14.20;73.50;;;;;;5096918;28;19924;-71
2023/10/27 13:21:19;;;;;;;;;;;14.20;73.50;;;;;;5131277;27;20409;-71
2023/10/27 13:23:45;;;;;;;;;;;14.20;73.40;;;;;;5115289;28;19924;-71
2023/10/27 13:26:10;;;;;;;;;;;14.20;73.40;;;;;;5131445;27;20011;-71
2023/10/27 13:28:36;;;;;;;;;;;14.20;73.40;;;;;;5096848;28;20348;-71
2023/10/27 13:31:02;;;;;;;;;;;14.20;73.40;;;;;;5096821;28;19943;-71
2023/10/27 13:33:28;;;;;;;;;;;14.20;73.40;;;;;;5115159;28;19919;-71
2023/10/27 13:36:01;;;;;;;;;;;14.20;73.50;;;;;;5115194;28;20363;-72
2023/10/27 13:38:27;;;;;;;;;;;14.20;73.40;;;;;;5096783;28;19945;-71
2023/10/27 13:40:52;;;;;;;;;;;14.20;73.40;;;;;;5096639;28;19968;-71
2023/10/27 13:43:20;;;;;;;;;;;14.20;73.40;;;;;;5096700;28;19920;-71
2023/10/27 13:45:46;;;;;;;;;;;14.20;73.40;;;;;;5114759;28;19977;-70
2023/10/27 13:48:12;;;;;;;;;;;14.20;73.40;;;;;;5114823;28;20298;-71
2023/10/27 13:50:37;;;;;;;;;;;14.20;73.40;;;;;;5096643;28;20339;-71
2023/10/27 13:53:03;;;;;;;;;;;14.20;73.40;;;;;;5130528;27;20455;-70
2023/10/27 13:55:28;;;;;;;;;;;14.20;73.40;;;;;;5096346;28;20052;-71
2023/10/27 13:57:55;;;;;;;;;;;14.20;73.40;;;;;;5114731;28;19945;-70
2023/10/27 14:00:26;;;;;;;;;;;14.20;73.40;;;;;;5096229;28;19986;-70
2023/10/27 14:02:52;;;;;;;;;;;14.20;73.40;;;;;;5096229;28;19927;-70
2023/10/27 14:05:18;;;;;;;;;;;14.20;74.20;;;;;;5114599;28;19965;-71
2023/10/27 14:07:44;;;;;;;;;;;14.20;73.40;;;;;;5096375;28;19954;-71
2023/10/27 14:10:09;;;;;;;;;;;14.20;73.40;;;;;;5095339;28;20014;-71
2023/10/27 14:12:35;;;;;;;;;;;14.20;73.30;;;;;;5114131;28;19931;-71
2023/10/27 14:15:01;;;;;;;;;;;14.20;73.40;;;;;;5096019;28;20010;-71
2023/10/27 14:17:27;;;;;;;;;;;14.20;73.40;;;;;;5114113;28;20175;-71
2023/10/27 14:19:52;;;;;;;;;;;14.20;73.40;;;;;;5114372;28;20233;-71
2023/10/27 14:22:18;;;;;;;;;;;14.20;73.40;;;;;;5114224;28;20025;-71
2023/10/27 14:24:43;;;;;;;;;;;14.20;73.40;;;;;;5095826;28;19974;-71
2023/10/27 14:27:09;;;;;;;;;;;14.20;73.40;;;;;;5095598;28;19945;-71
2023/10/27 14:29:34;;;;;;;;;;;14.20;73.40;;;;;;5095755;28;19923;-71
2023/10/27 14:32:00;;;;;;;;;;;14.20;73.40;;;;;;5095573;28;19920;-71